SWA1403 KCMH-KDCA
Flight info
| Callsign | SWA1403 |
|---|---|
| Flight time | N/A |
| Altitude | 35000 |
| Route | OWEBO AIR BUCKO FRDMM6 |
| Aircraft | B738/M-SDE2E3FGHIRWXY/LB1 |
Departure
| Time | 2026-04-28 03:52 |
|---|---|
| Airport | John Glenn Columbus International Airport (KCMH) |
Arrival
| Time | N/A |
|---|---|
| Airport | Ronald Reagan Washington National Airport (KDCA) |
| Time | Latitude | Longitude | Altitude | Speed | Heading |
|---|---|---|---|---|---|
| 2026-04-28 03:49 | 39.99585 | -82.88396 | 818 ft | 3 kts | 94° |
| 2026-04-28 03:49 | 39.99562 | -82.88333 | 822 ft | 13 kts | 146° |
| 2026-04-28 03:49 | 39.99448 | -82.88324 | 824 ft | 18 kts | 180° |
| 2026-04-28 03:49 | 39.99389 | -82.88202 | 824 ft | 17 kts | 95° |
| 2026-04-28 03:50 | 39.99378 | -82.88023 | 824 ft | 24 kts | 94° |
| 2026-04-28 03:50 | 39.99366 | -82.87810 | 824 ft | 23 kts | 94° |
| 2026-04-28 03:50 | 39.99354 | -82.87594 | 824 ft | 24 kts | 94° |
| 2026-04-28 03:50 | 39.99340 | -82.87385 | 824 ft | 23 kts | 105° |
| 2026-04-28 03:51 | 39.99227 | -82.87330 | 823 ft | 14 kts | 183° |
| 2026-04-28 03:51 | 39.99167 | -82.87397 | 823 ft | 15 kts | 272° |
| 2026-04-28 03:51 | 39.99191 | -82.87817 | 823 ft | 79 kts | 275° |
| 2026-04-28 03:51 | 39.99247 | -82.88801 | 824 ft | 136 kts | 274° |
| 2026-04-28 03:52 | 39.99338 | -82.90238 | 931 ft | 175 kts | 274° |
| 2026-04-28 03:52 | 39.99465 | -82.91769 | 1821 ft | 171 kts | 274° |
| 2026-04-28 03:52 | 39.99941 | -82.93420 | 2025 ft | 223 kts | 296° |
| 2026-04-28 03:52 | 40.01189 | -82.94819 | 2462 ft | 256 kts | 332° |
| 2026-04-28 03:53 | 40.03029 | -82.95163 | 2754 ft | 282 kts | 12° |
| 2026-04-28 03:53 | 40.04828 | -82.94116 | 3134 ft | 293 kts | 41° |
| 2026-04-28 03:53 | 40.06153 | -82.92126 | 3602 ft | 292 kts | 74° |
| 2026-04-28 03:53 | 40.06536 | -82.89632 | 4354 ft | 273 kts | 101° |
| 2026-04-28 03:54 | 40.06431 | -82.87138 | 5167 ft | 277 kts | 103° |
| 2026-04-28 03:54 | 40.06310 | -82.84594 | 5925 ft | 285 kts | 102° |
| 2026-04-28 03:54 | 40.06230 | -82.81984 | 6699 ft | 290 kts | 101° |
| 2026-04-28 03:54 | 40.06186 | -82.79320 | 7436 ft | 296 kts | 98° |
| 2026-04-28 03:55 | 40.06175 | -82.76609 | 8168 ft | 302 kts | 96° |
| 2026-04-28 03:55 | 40.06184 | -82.73849 | 8925 ft | 307 kts | 95° |
| 2026-04-28 03:55 | 40.06207 | -82.71040 | 9649 ft | 313 kts | 93° |
| 2026-04-28 03:55 | 40.06245 | -82.68180 | 10324 ft | 320 kts | 92° |